createdAt,value
2018-05-09T00:01:33.437Z,15.36
2018-05-09T00:04:36.760Z,15.33
2018-05-09T00:07:40.097Z,15.31
2018-05-09T00:10:43.409Z,15.32
2018-05-09T00:13:46.741Z,15.33
2018-05-09T00:16:50.045Z,15.33
2018-05-09T00:19:54.124Z,15.33
2018-05-09T00:22:57.424Z,15.32
2018-05-09T00:26:00.748Z,15.28
2018-05-09T00:29:04.049Z,15.23
2018-05-09T00:32:07.367Z,15.18
2018-05-09T00:35:10.681Z,15.19
2018-05-09T00:38:14.425Z,15.15
2018-05-09T00:41:17.746Z,15.13
2018-05-09T00:44:21.816Z,15.10
2018-05-09T00:47:25.132Z,15.08
2018-05-09T00:50:28.439Z,15.04
2018-05-09T00:53:31.770Z,15.02
2018-05-09T00:56:35.077Z,15.00
2018-05-09T00:59:38.397Z,15.00
2018-05-09T01:02:41.713Z,15.00
2018-05-09T01:05:45.013Z,14.99
2018-05-09T01:08:48.341Z,14.98
2018-05-09T01:11:52.418Z,14.99
2018-05-09T01:14:55.733Z,15.00
2018-05-09T01:17:59.043Z,14.97
2018-05-09T01:21:03.138Z,14.97
2018-05-09T01:24:06.458Z,14.94
2018-05-09T01:27:10.618Z,14.90
2018-05-09T01:30:14.634Z,14.88
2018-05-09T01:33:17.958Z,14.83
2018-05-09T01:36:21.257Z,14.80
2018-05-09T01:39:24.568Z,14.79
2018-05-09T01:42:27.865Z,14.78
2018-05-09T01:45:31.180Z,14.72
2018-05-09T01:48:35.245Z,14.69
2018-05-09T01:51:38.562Z,14.64
2018-05-09T01:54:41.881Z,14.59
2018-05-09T01:57:45.952Z,14.53
2018-05-09T02:00:49.264Z,14.47
2018-05-09T02:03:52.571Z,14.45
2018-05-09T02:06:55.882Z,14.37
2018-05-09T02:09:59.941Z,14.31
2018-05-09T02:13:03.261Z,14.26
2018-05-09T02:16:06.594Z,14.24
2018-05-09T02:19:10.660Z,14.21
2018-05-09T02:22:13.981Z,14.18
2018-05-09T02:25:17.309Z,14.14
2018-05-09T02:28:20.619Z,14.09
2018-05-09T02:31:23.933Z,14.06
2018-05-09T02:34:27.238Z,14.01
2018-05-09T02:37:30.562Z,13.96
2018-05-09T02:40:33.882Z,13.90
2018-05-09T02:43:37.961Z,13.86
2018-05-09T02:46:41.289Z,13.86
2018-05-09T02:49:45.378Z,13.84
2018-05-09T02:52:48.697Z,13.81
2018-05-09T02:55:52.783Z,13.74
2018-05-09T02:58:56.106Z,13.71
2018-05-09T03:02:00.181Z,13.67
2018-05-09T03:05:03.500Z,13.62
2018-05-09T03:08:06.835Z,13.57
2018-05-09T03:11:10.141Z,13.59
2018-05-09T03:14:13.456Z,13.57
2018-05-09T03:17:16.757Z,13.56
2018-05-09T03:20:20.124Z,13.55
2018-05-09T03:23:23.421Z,13.50
2018-05-09T03:26:26.741Z,13.45
2018-05-09T03:29:30.069Z,13.45
2018-05-09T03:32:33.372Z,13.46
2018-05-09T03:35:36.689Z,13.48
2018-05-09T03:38:40.756Z,13.45
2018-05-09T03:41:44.079Z,13.43
2018-05-09T03:44:47.400Z,13.44
2018-05-09T03:47:51.477Z,13.43
2018-05-09T03:50:54.815Z,13.45
2018-05-09T03:53:58.121Z,13.43
2018-05-09T03:57:01.523Z,13.45
2018-05-09T04:00:04.749Z,13.48
2018-05-09T04:03:25.537Z,13.48
2018-05-09T04:06:46.461Z,13.47
2018-05-09T04:09:57.110Z,13.45
2018-05-09T04:13:00.425Z,13.47
2018-05-09T04:16:03.744Z,13.49
2018-05-09T04:19:07.062Z,13.50
2018-05-09T04:22:10.526Z,13.56
2018-05-09T04:25:13.837Z,13.61
2018-05-09T04:28:17.216Z,13.66
2018-05-09T04:31:21.238Z,13.69
2018-05-09T04:34:24.565Z,13.76
2018-05-09T04:37:28.641Z,13.81
2018-05-09T04:40:31.957Z,13.88
2018-05-09T04:43:35.263Z,13.95
2018-05-09T04:46:38.593Z,14.01
2018-05-09T04:49:41.889Z,14.08
2018-05-09T04:52:45.217Z,14.13
2018-05-09T04:55:48.562Z,14.18
2018-05-09T04:58:52.645Z,14.23
2018-05-09T05:01:55.967Z,14.29
2018-05-09T05:04:59.273Z,14.37
2018-05-09T05:08:03.365Z,14.46
2018-05-09T05:11:06.677Z,14.56
2018-05-09T05:14:10.852Z,14.64
2018-05-09T05:17:14.093Z,14.73
2018-05-09T05:20:17.412Z,14.80
2018-05-09T05:23:20.708Z,14.89
2018-05-09T05:26:24.021Z,14.97
2018-05-09T05:29:27.316Z,15.07
2018-05-09T05:32:30.634Z,15.17
2018-05-09T05:35:33.942Z,15.29
2018-05-09T05:38:37.261Z,15.45
2018-05-09T05:41:40.553Z,15.63
2018-05-09T05:44:43.876Z,15.78
2018-05-09T05:47:47.201Z,15.96
2018-05-09T05:50:50.504Z,16.13
2018-05-09T05:53:53.831Z,16.23
2018-05-09T05:56:57.129Z,16.34
2018-05-09T06:00:00.445Z,16.51
2018-05-09T06:03:04.533Z,16.64
2018-05-09T06:06:07.838Z,16.79
2018-05-09T06:09:11.157Z,16.90
2018-05-09T06:12:15.229Z,17.01
2018-05-09T06:15:18.549Z,17.16
2018-05-09T06:18:21.865Z,17.29
2018-05-09T06:21:25.933Z,17.41
2018-05-09T06:24:29.245Z,17.52
2018-05-09T06:27:32.560Z,17.65
2018-05-09T06:30:35.877Z,17.76
2018-05-09T06:33:39.201Z,17.85
2018-05-09T06:36:42.496Z,17.94
2018-05-09T06:39:45.819Z,18.06
2018-05-09T06:42:49.125Z,18.19
2018-05-09T06:45:52.449Z,18.30
2018-05-09T06:48:56.513Z,18.44
2018-05-09T06:51:59.832Z,18.56
2018-05-09T06:55:03.138Z,18.71
2018-05-09T06:58:06.462Z,18.86
2018-05-09T07:01:10.549Z,19.01
2018-05-09T07:04:13.845Z,19.17
2018-05-09T07:07:17.193Z,19.30
2018-05-09T07:10:20.565Z,19.42
2018-05-09T07:13:24.642Z,19.54
2018-05-09T07:16:27.944Z,19.67
2018-05-09T07:19:31.261Z,19.79
2018-05-09T07:22:35.344Z,19.94
2018-05-09T07:25:38.670Z,20.08
2018-05-09T07:28:42.741Z,20.25
2018-05-09T07:31:46.068Z,20.39
2018-05-09T07:34:49.385Z,20.53
2018-05-09T07:37:53.449Z,20.66
2018-05-09T07:40:56.769Z,20.79
2018-05-09T07:44:00.077Z,20.92
2018-05-09T07:47:03.394Z,21.06
2018-05-09T07:50:07.462Z,21.20
2018-05-09T07:53:10.773Z,21.36
2018-05-09T07:56:14.085Z,21.51
2018-05-09T07:59:18.162Z,21.63
2018-05-09T08:02:21.477Z,21.75
2018-05-09T08:05:24.797Z,21.87
2018-05-09T08:08:28.109Z,22.04
2018-05-09T08:11:31.435Z,22.21
2018-05-09T08:14:34.729Z,22.34
2018-05-09T08:17:38.053Z,22.48
2018-05-09T08:20:41.357Z,22.64
2018-05-09T08:23:44.722Z,22.83
2018-05-09T08:26:48.765Z,23.01
2018-05-09T08:29:52.069Z,23.11
2018-05-09T08:32:55.385Z,23.22
2018-05-09T08:35:58.701Z,23.34
2018-05-09T08:39:02.001Z,23.45
2018-05-09T08:42:05.317Z,23.58
2018-05-09T08:45:08.629Z,23.70
2018-05-09T08:48:11.956Z,23.86
2018-05-09T08:51:15.266Z,23.96
2018-05-09T08:54:19.357Z,24.04
2018-05-09T08:57:22.664Z,24.13
2018-05-09T09:00:25.981Z,24.25
2018-05-09T09:03:30.049Z,24.35
2018-05-09T09:06:33.487Z,24.49
2018-05-09T09:09:37.463Z,24.57
2018-05-09T09:12:40.778Z,24.66
2018-05-09T09:15:44.138Z,24.80
2018-05-09T09:18:47.457Z,24.94
2018-05-09T09:21:50.757Z,25.02
2018-05-09T09:24:54.069Z,25.07
2018-05-09T09:27:57.398Z,25.18
2018-05-09T09:31:01.130Z,25.33
2018-05-09T09:34:04.740Z,25.44
2018-05-09T09:37:08.057Z,25.45
2018-05-09T09:40:11.389Z,25.49
2018-05-09T09:43:15.457Z,25.55
2018-05-09T09:46:18.796Z,25.54
2018-05-09T09:49:22.861Z,25.61
2018-05-09T09:52:26.186Z,25.66
2018-05-09T09:55:29.490Z,25.65
2018-05-09T09:58:33.576Z,25.67
2018-05-09T10:01:36.972Z,25.69
2018-05-09T10:04:40.213Z,25.70
2018-05-09T10:07:44.293Z,25.78
2018-05-09T10:10:47.613Z,25.88
2018-05-09T10:13:51.687Z,25.95
2018-05-09T10:16:55.025Z,25.97
2018-05-09T10:19:59.097Z,26.01
2018-05-09T10:23:02.429Z,26.03
2018-05-09T10:26:05.745Z,26.01
2018-05-09T10:29:09.824Z,26.01
2018-05-09T10:32:13.144Z,26.03
2018-05-09T10:35:16.450Z,26.09
2018-05-09T10:38:20.545Z,26.13
2018-05-09T10:41:23.857Z,26.19
2018-05-09T10:44:27.937Z,26.22
2018-05-09T10:47:31.306Z,26.21
2018-05-09T10:50:35.339Z,26.23
2018-05-09T10:53:38.653Z,26.19
2018-05-09T10:56:41.965Z,26.20
2018-05-09T10:59:46.028Z,26.21
2018-05-09T11:02:49.379Z,26.23
2018-05-09T11:05:53.446Z,26.26
2018-05-09T11:08:56.767Z,26.34
2018-05-09T11:12:00.113Z,26.41
2018-05-09T11:15:03.426Z,26.45
2018-05-09T11:18:06.749Z,26.49
2018-05-09T11:21:10.057Z,26.55
2018-05-09T11:24:13.385Z,26.56
2018-05-09T11:27:17.449Z,26.59
2018-05-09T11:30:20.789Z,26.62
2018-05-09T11:33:24.856Z,26.62
2018-05-09T11:36:28.178Z,26.62
2018-05-09T11:39:31.497Z,26.66
2018-05-09T11:42:35.582Z,26.67
2018-05-09T11:45:38.917Z,26.70
2018-05-09T11:48:42.221Z,26.74
2018-05-09T11:51:45.545Z,26.70
2018-05-09T11:54:48.866Z,26.69
2018-05-09T11:57:52.185Z,26.65
2018-05-09T12:00:55.486Z,26.66
2018-05-09T12:03:59.598Z,26.69
2018-05-09T12:07:03.661Z,26.72
2018-05-09T12:10:06.981Z,26.77
2018-05-09T12:13:10.324Z,26.73
2018-05-09T12:16:14.394Z,26.65
2018-05-09T12:19:17.715Z,26.55
2018-05-09T12:22:21.021Z,26.56
2018-05-09T12:25:25.109Z,26.53
2018-05-09T12:28:28.437Z,26.53
2018-05-09T12:31:32.505Z,26.54
2018-05-09T12:34:35.859Z,26.52
2018-05-09T12:37:39.905Z,26.51
2018-05-09T12:40:44.033Z,26.57
2018-05-09T12:43:47.340Z,26.59
2018-05-09T12:46:50.666Z,26.60
2018-05-09T12:49:54.732Z,26.58
2018-05-09T12:52:58.078Z,26.55
2018-05-09T12:56:02.145Z,26.50
2018-05-09T12:59:05.457Z,26.51
2018-05-09T13:02:08.779Z,26.54
2018-05-09T13:05:12.857Z,26.59
2018-05-09T13:08:16.173Z,26.59
2018-05-09T13:11:19.477Z,26.62
2018-05-09T13:14:22.799Z,26.67
2018-05-09T13:17:26.105Z,26.61
2018-05-09T13:20:29.417Z,26.56
2018-05-09T13:23:32.719Z,26.56
2018-05-09T13:26:36.037Z,26.59
2018-05-09T13:29:39.349Z,26.53
2018-05-09T13:32:42.674Z,26.50
2018-05-09T13:35:46.754Z,26.47
2018-05-09T13:38:50.081Z,26.41
2018-05-09T13:41:54.165Z,26.49
2018-05-09T13:44:57.474Z,26.52
2018-05-09T13:48:00.789Z,26.47
2018-05-09T13:51:04.094Z,26.44
2018-05-09T13:54:07.417Z,26.41
2018-05-09T13:57:10.742Z,26.41
2018-05-09T14:00:14.061Z,26.41
2018-05-09T14:03:17.372Z,26.40
2018-05-09T14:06:21.457Z,26.41
2018-05-09T14:09:24.758Z,26.45
2018-05-09T14:12:28.105Z,26.45
2018-05-09T14:15:31.486Z,26.42
2018-05-09T14:18:34.737Z,26.38
2018-05-09T14:21:38.071Z,26.38
2018-05-09T14:24:42.231Z,26.49
2018-05-09T14:27:45.683Z,26.59
2018-05-09T14:30:49.770Z,26.61
2018-05-09T14:33:53.249Z,26.62
2018-05-09T14:36:56.574Z,26.58
2018-05-09T14:39:59.957Z,26.57
2018-05-09T14:43:03.327Z,26.53
2018-05-09T14:46:06.668Z,26.53
2018-05-09T14:49:10.028Z,26.55
2018-05-09T14:52:13.392Z,26.53
2018-05-09T14:55:16.779Z,26.56
2018-05-09T14:58:20.126Z,26.57
2018-05-09T15:01:23.469Z,26.57
2018-05-09T15:04:26.799Z,26.60
2018-05-09T15:07:30.097Z,26.68
2018-05-09T15:10:33.413Z,26.79
2018-05-09T15:13:37.181Z,26.83
2018-05-09T15:16:40.489Z,26.93
2018-05-09T15:19:43.879Z,27.06
2018-05-09T15:22:47.185Z,27.04
2018-05-09T15:25:50.507Z,27.09
2018-05-09T15:28:53.804Z,27.15
2018-05-09T15:31:57.125Z,27.19
2018-05-09T15:35:00.425Z,27.37
2018-05-09T15:38:03.752Z,27.37
2018-05-09T15:41:07.106Z,27.40
2018-05-09T15:44:10.437Z,27.41
2018-05-09T15:47:14.512Z,27.40
2018-05-09T15:50:17.854Z,27.26
2018-05-09T15:53:21.165Z,27.29
2018-05-09T15:56:24.464Z,27.50
2018-05-09T15:59:27.789Z,27.36
2018-05-09T16:02:31.137Z,27.22
2018-05-09T16:05:35.205Z,27.13
2018-05-09T16:08:38.529Z,27.15
2018-05-09T16:11:41.860Z,26.62
2018-05-09T16:14:45.184Z,26.09
2018-05-09T16:17:48.500Z,25.55
2018-05-09T16:20:51.813Z,25.16
2018-05-09T16:23:55.137Z,24.84
2018-05-09T16:26:59.209Z,24.59
2018-05-09T16:30:02.561Z,24.38
2018-05-09T16:33:05.874Z,24.28
2018-05-09T16:36:09.273Z,24.15
2018-05-09T16:39:12.522Z,24.06
2018-05-09T16:42:16.600Z,23.93
2018-05-09T16:45:19.922Z,23.80
2018-05-09T16:48:23.246Z,23.73
2018-05-09T16:51:26.565Z,23.65
2018-05-09T16:54:29.878Z,23.57
2018-05-09T16:57:33.244Z,23.54
2018-05-09T17:00:38.117Z,23.45
2018-05-09T17:03:41.443Z,23.29
2018-05-09T17:06:44.761Z,23.19
2018-05-09T17:09:48.849Z,23.09
2018-05-09T17:12:52.193Z,23.01
2018-05-09T17:15:55.494Z,22.96
2018-05-09T17:18:58.824Z,22.88
2018-05-09T17:22:25.310Z,22.75
2018-05-09T17:25:28.642Z,22.68
2018-05-09T17:28:31.970Z,22.64
2018-05-09T17:31:35.317Z,22.51
2018-05-09T17:34:38.629Z,22.34
2018-05-09T17:37:42.727Z,22.24
2018-05-09T17:40:46.052Z,22.09
2018-05-09T17:43:49.361Z,22.01
2018-05-09T17:46:52.689Z,21.89
2018-05-09T17:49:56.786Z,21.73
2018-05-09T17:53:00.114Z,21.61
2018-05-09T17:56:03.422Z,21.48
2018-05-09T17:59:06.741Z,21.40
2018-05-09T18:02:10.045Z,21.25
2018-05-09T18:05:13.360Z,21.11
2018-05-09T18:08:16.672Z,21.00
2018-05-09T18:11:20.001Z,20.90
2018-05-09T18:14:23.321Z,20.72
2018-05-09T18:17:26.632Z,20.62
2018-05-09T18:20:29.959Z,20.50
2018-05-09T18:23:33.285Z,20.43
2018-05-09T18:26:36.588Z,20.38
2018-05-09T18:29:39.911Z,20.27
2018-05-09T18:32:43.249Z,20.16
2018-05-09T18:35:46.633Z,20.08
2018-05-09T18:38:49.947Z,19.97
2018-05-09T18:41:54.041Z,19.86
2018-05-09T18:44:57.349Z,19.70
2018-05-09T18:48:00.669Z,19.53
2018-05-09T18:51:04.745Z,19.34
2018-05-09T18:54:08.148Z,19.17
2018-05-09T18:57:11.410Z,19.00
2018-05-09T19:00:14.721Z,18.89
2018-05-09T19:03:18.051Z,18.80
2018-05-09T19:06:21.429Z,18.75
2018-05-09T19:09:24.730Z,18.64
2018-05-09T19:12:28.045Z,18.53
2018-05-09T19:15:32.128Z,18.43
2018-05-09T19:18:35.433Z,18.33
2018-05-09T19:21:38.760Z,18.25
2018-05-09T19:24:42.841Z,18.18
2018-05-09T19:27:46.183Z,18.11
2018-05-09T19:30:49.489Z,18.09
2018-05-09T19:33:52.815Z,18.03
2018-05-09T19:36:56.152Z,17.96
2018-05-09T19:40:00.224Z,17.97
2018-05-09T19:43:03.545Z,17.94
2018-05-09T19:46:06.845Z,17.88
2018-05-09T19:49:10.164Z,17.80
2018-05-09T19:52:14.260Z,17.79
2018-05-09T19:55:17.587Z,17.76
2018-05-09T19:58:20.909Z,17.67
2018-05-09T20:01:24.973Z,17.59
2018-05-09T20:04:28.317Z,17.56
2018-05-09T20:07:31.608Z,17.49
2018-05-09T20:10:34.938Z,17.45
2018-05-09T20:13:38.237Z,17.43
2018-05-09T20:16:41.558Z,17.39
2018-05-09T20:19:44.866Z,17.35
2018-05-09T20:22:48.955Z,17.32
2018-05-09T20:25:52.261Z,17.26
2018-05-09T20:29:07.179Z,17.27
2018-05-09T20:32:29.946Z,17.25
2018-05-09T20:35:33.436Z,17.20
2018-05-09T20:38:36.741Z,17.17
2018-05-09T20:41:40.058Z,17.14
2018-05-09T20:44:43.381Z,17.12
2018-05-09T20:47:46.769Z,17.09
2018-05-09T20:50:50.193Z,17.03
2018-05-09T20:53:54.262Z,16.99
2018-05-09T20:56:57.578Z,16.95
2018-05-09T21:00:00.917Z,16.93
2018-05-09T21:03:04.226Z,16.87
2018-05-09T21:06:07.548Z,16.83
2018-05-09T21:09:10.889Z,16.79
2018-05-09T21:12:14.983Z,16.77
2018-05-09T21:15:18.354Z,16.72
2018-05-09T21:18:22.409Z,16.70
2018-05-09T21:21:26.477Z,16.65
2018-05-09T21:24:29.790Z,16.59
2018-05-09T21:27:33.099Z,16.51
2018-05-09T21:30:36.417Z,16.47
2018-05-09T21:33:40.489Z,16.45
2018-05-09T21:36:43.809Z,16.40
2018-05-09T21:39:47.109Z,16.40
2018-05-09T21:42:50.425Z,16.42
2018-05-09T21:45:53.751Z,16.36
2018-05-09T21:48:57.817Z,16.23
2018-05-09T21:52:01.141Z,16.14
2018-05-09T21:55:04.453Z,16.10
2018-05-09T21:58:07.770Z,16.02
2018-05-09T22:01:11.133Z,15.93
2018-05-09T22:04:14.445Z,15.86
2018-05-09T22:07:17.817Z,15.83
2018-05-09T22:10:21.881Z,15.79
2018-05-09T22:13:25.213Z,15.72
2018-05-09T22:16:37.920Z,15.70
2018-05-09T22:19:41.269Z,15.64
2018-05-09T22:22:44.626Z,15.59
2018-05-09T22:25:48.697Z,15.57
2018-05-09T22:28:52.078Z,15.54
2018-05-09T22:31:55.402Z,15.51
2018-05-09T22:34:58.749Z,15.49
2018-05-09T22:38:02.189Z,15.44
2018-05-09T22:41:05.545Z,15.40
2018-05-09T22:44:08.866Z,15.34
2018-05-09T22:47:12.184Z,15.33
2018-05-09T22:50:15.509Z,15.27
2018-05-09T22:53:18.813Z,15.28
2018-05-09T22:56:22.141Z,15.24
2018-05-09T22:59:25.458Z,15.20
2018-05-09T23:02:28.814Z,15.18
2018-05-09T23:05:32.881Z,15.16
2018-05-09T23:08:36.209Z,15.15
2018-05-09T23:11:39.510Z,15.14
2018-05-09T23:14:43.599Z,15.12
2018-05-09T23:17:47.051Z,15.14
2018-05-09T23:20:50.390Z,15.11
2018-05-09T23:23:53.821Z,15.13
2018-05-09T23:26:57.138Z,15.15
2018-05-09T23:30:00.454Z,15.12
2018-05-09T23:33:03.818Z,15.13
2018-05-09T23:36:07.929Z,15.13
2018-05-09T23:39:12.017Z,15.14
2018-05-09T23:42:15.466Z,15.16
2018-05-09T23:45:18.845Z,15.14
2018-05-09T23:48:22.920Z,15.14
2018-05-09T23:51:26.289Z,15.15
2018-05-09T23:54:29.643Z,15.15
2018-05-09T23:57:32.955Z,15.16
